sensor_id;sensor_type;location;lat;lon;timestamp;P1;durP1;ratioP1;P2;durP2;ratioP2
42140;SDS011;27809;51.864;5.646;2023-06-22T00:01:57;7.03;;;3.38;;
42140;SDS011;27809;51.864;5.646;2023-06-22T00:04:23;5.78;;;3.08;;
42140;SDS011;27809;51.864;5.646;2023-06-22T00:06:49;4.70;;;2.85;;
42140;SDS011;27809;51.864;5.646;2023-06-22T00:09:14;4.90;;;3.58;;
42140;SDS011;27809;51.864;5.646;2023-06-22T00:11:40;4.30;;;3.05;;
42140;SDS011;27809;51.864;5.646;2023-06-22T00:14:05;7.07;;;3.13;;
42140;SDS011;27809;51.864;5.646;2023-06-22T00:16:34;5.60;;;3.83;;
42140;SDS011;27809;51.864;5.646;2023-06-22T00:18:59;6.57;;;5.05;;
42140;SDS011;27809;51.864;5.646;2023-06-22T00:21:26;4.80;;;3.05;;
42140;SDS011;27809;51.864;5.646;2023-06-22T00:23:52;4.68;;;3.15;;
42140;SDS011;27809;51.864;5.646;2023-06-22T00:26:17;6.53;;;3.53;;
42140;SDS011;27809;51.864;5.646;2023-06-22T00:28:43;6.00;;;3.90;;
42140;SDS011;27809;51.864;5.646;2023-06-22T00:31:08;4.25;;;3.22;;
42140;SDS011;27809;51.864;5.646;2023-06-22T00:33:34;5.72;;;3.45;;
42140;SDS011;27809;51.864;5.646;2023-06-22T00:35:59;4.95;;;3.28;;
42140;SDS011;27809;51.864;5.646;2023-06-22T00:38:25;7.38;;;4.20;;
42140;SDS011;27809;51.864;5.646;2023-06-22T00:40:51;4.75;;;3.40;;
42140;SDS011;27809;51.864;5.646;2023-06-22T00:43:16;5.53;;;3.25;;
42140;SDS011;27809;51.864;5.646;2023-06-22T00:45:42;6.80;;;3.63;;
42140;SDS011;27809;51.864;5.646;2023-06-22T00:48:07;7.00;;;4.22;;
42140;SDS011;27809;51.864;5.646;2023-06-22T00:50:34;7.00;;;5.00;;
42140;SDS011;27809;51.864;5.646;2023-06-22T00:53:01;9.05;;;4.72;;
42140;SDS011;27809;51.864;5.646;2023-06-22T00:55:37;6.28;;;4.53;;
42140;SDS011;27809;51.864;5.646;2023-06-22T00:58:10;5.75;;;4.38;;
42140;SDS011;27809;51.864;5.646;2023-06-22T01:00:37;6.05;;;3.80;;
42140;SDS011;27809;51.864;5.646;2023-06-22T01:03:04;7.63;;;5.20;;
42140;SDS011;27809;51.864;5.646;2023-06-22T01:05:33;7.75;;;5.25;;
42140;SDS011;27809;51.864;5.646;2023-06-22T01:11:09;8.10;;;4.53;;
42140;SDS011;27809;51.864;5.646;2023-06-22T01:13:43;10.32;;;4.82;;
42140;SDS011;27809;51.864;5.646;2023-06-22T01:16:17;7.00;;;4.00;;
42140;SDS011;27809;51.864;5.646;2023-06-22T01:18:50;6.05;;;4.30;;
42140;SDS011;27809;51.864;5.646;2023-06-22T01:21:20;9.50;;;5.32;;
42140;SDS011;27809;51.864;5.646;2023-06-22T01:29:30;10.82;;;4.88;;
42140;SDS011;27809;51.864;5.646;2023-06-22T01:31:58;7.05;;;4.55;;
42140;SDS011;27809;51.864;5.646;2023-06-22T01:34:25;10.57;;;6.07;;
42140;SDS011;27809;51.864;5.646;2023-06-22T01:36:51;6.05;;;4.65;;
42140;SDS011;27809;51.864;5.646;2023-06-22T01:39:17;6.85;;;4.43;;
42140;SDS011;27809;51.864;5.646;2023-06-22T01:41:44;10.70;;;4.35;;
42140;SDS011;27809;51.864;5.646;2023-06-22T01:44:10;4.50;;;3.80;;
42140;SDS011;27809;51.864;5.646;2023-06-22T01:46:37;5.70;;;4.40;;
42140;SDS011;27809;51.864;5.646;2023-06-22T01:49:04;7.85;;;3.90;;
42140;SDS011;27809;51.864;5.646;2023-06-22T01:51:30;6.75;;;4.38;;
42140;SDS011;27809;51.864;5.646;2023-06-22T01:53:56;6.72;;;4.05;;
42140;SDS011;27809;51.864;5.646;2023-06-22T01:56:22;8.68;;;3.72;;
42140;SDS011;27809;51.864;5.646;2023-06-22T01:58:55;5.05;;;3.20;;
42140;SDS011;27809;51.864;5.646;2023-06-22T02:01:27;7.20;;;3.88;;
42140;SDS011;27809;51.864;5.646;2023-06-22T02:07:03;6.13;;;4.05;;
42140;SDS011;27809;51.864;5.646;2023-06-22T02:09:32;8.32;;;3.70;;
42140;SDS011;27809;51.864;5.646;2023-06-22T02:12:02;7.13;;;4.40;;
42140;SDS011;27809;51.864;5.646;2023-06-22T02:14:29;7.45;;;3.60;;
42140;SDS011;27809;51.864;5.646;2023-06-22T02:16:56;6.25;;;4.18;;
42140;SDS011;27809;51.864;5.646;2023-06-22T02:19:24;8.73;;;4.22;;
42140;SDS011;27809;51.864;5.646;2023-06-22T02:21:50;4.63;;;3.65;;
42140;SDS011;27809;51.864;5.646;2023-06-22T02:24:16;7.38;;;4.40;;
42140;SDS011;27809;51.864;5.646;2023-06-22T02:26:42;8.98;;;4.38;;
42140;SDS011;27809;51.864;5.646;2023-06-22T02:29:10;5.93;;;4.43;;
42140;SDS011;27809;51.864;5.646;2023-06-22T02:31:36;6.63;;;4.35;;
42140;SDS011;27809;51.864;5.646;2023-06-22T02:34:01;5.82;;;4.57;;
42140;SDS011;27809;51.864;5.646;2023-06-22T02:36:27;7.45;;;4.00;;
42140;SDS011;27809;51.864;5.646;2023-06-22T02:38:55;7.70;;;4.63;;
42140;SDS011;27809;51.864;5.646;2023-06-22T02:41:24;7.88;;;4.55;;
42140;SDS011;27809;51.864;5.646;2023-06-22T02:43:49;7.32;;;3.83;;
42140;SDS011;27809;51.864;5.646;2023-06-22T02:46:15;7.35;;;5.10;;
42140;SDS011;27809;51.864;5.646;2023-06-22T02:48:41;5.88;;;3.88;;
42140;SDS011;27809;51.864;5.646;2023-06-22T02:51:06;8.65;;;4.47;;
42140;SDS011;27809;51.864;5.646;2023-06-22T02:53:32;5.38;;;3.47;;
42140;SDS011;27809;51.864;5.646;2023-06-22T02:55:58;8.93;;;3.88;;
42140;SDS011;27809;51.864;5.646;2023-06-22T02:58:23;5.07;;;3.58;;
42140;SDS011;27809;51.864;5.646;2023-06-22T03:00:49;7.88;;;4.72;;
42140;SDS011;27809;51.864;5.646;2023-06-22T03:03:19;5.82;;;4.00;;
42140;SDS011;27809;51.864;5.646;2023-06-22T03:05:44;7.13;;;4.95;;
42140;SDS011;27809;51.864;5.646;2023-06-22T03:08:10;5.95;;;4.05;;
42140;SDS011;27809;51.864;5.646;2023-06-22T03:10:36;10.27;;;5.70;;
42140;SDS011;27809;51.864;5.646;2023-06-22T03:13:02;5.47;;;3.78;;
42140;SDS011;27809;51.864;5.646;2023-06-22T03:15:27;5.38;;;4.00;;
42140;SDS011;27809;51.864;5.646;2023-06-22T03:17:54;8.02;;;4.13;;
42140;SDS011;27809;51.864;5.646;2023-06-22T03:20:20;5.95;;;3.88;;
42140;SDS011;27809;51.864;5.646;2023-06-22T03:22:46;7.18;;;4.35;;
42140;SDS011;27809;51.864;5.646;2023-06-22T03:25:13;6.55;;;4.68;;
42140;SDS011;27809;51.864;5.646;2023-06-22T03:27:39;6.30;;;4.25;;
42140;SDS011;27809;51.864;5.646;2023-06-22T03:30:06;6.22;;;4.63;;
42140;SDS011;27809;51.864;5.646;2023-06-22T03:32:33;7.28;;;4.22;;
42140;SDS011;27809;51.864;5.646;2023-06-22T03:34:59;6.00;;;4.00;;
42140;SDS011;27809;51.864;5.646;2023-06-22T03:37:25;6.72;;;4.40;;
42140;SDS011;27809;51.864;5.646;2023-06-22T03:39:51;11.20;;;5.65;;
42140;SDS011;27809;51.864;5.646;2023-06-22T03:42:17;7.25;;;4.40;;
42140;SDS011;27809;51.864;5.646;2023-06-22T03:44:42;9.52;;;5.03;;
42140;SDS011;27809;51.864;5.646;2023-06-22T03:47:08;9.85;;;4.93;;
42140;SDS011;27809;51.864;5.646;2023-06-22T03:49:34;7.32;;;4.55;;
42140;SDS011;27809;51.864;5.646;2023-06-22T03:52:00;6.65;;;4.57;;
42140;SDS011;27809;51.864;5.646;2023-06-22T03:54:27;9.10;;;5.40;;
42140;SDS011;27809;51.864;5.646;2023-06-22T03:56:54;8.80;;;4.72;;
42140;SDS011;27809;51.864;5.646;2023-06-22T03:59:19;9.57;;;3.95;;
42140;SDS011;27809;51.864;5.646;2023-06-22T04:01:44;7.35;;;4.80;;
42140;SDS011;27809;51.864;5.646;2023-06-22T04:04:11;7.57;;;4.43;;
42140;SDS011;27809;51.864;5.646;2023-06-22T04:06:37;6.43;;;5.13;;
42140;SDS011;27809;51.864;5.646;2023-06-22T04:09:03;7.70;;;4.40;;
42140;SDS011;27809;51.864;5.646;2023-06-22T04:11:28;11.45;;;5.82;;
42140;SDS011;27809;51.864;5.646;2023-06-22T04:13:54;8.80;;;5.90;;
42140;SDS011;27809;51.864;5.646;2023-06-22T04:16:20;7.25;;;4.30;;
42140;SDS011;27809;51.864;5.646;2023-06-22T04:18:45;8.63;;;5.78;;
42140;SDS011;27809;51.864;5.646;2023-06-22T04:21:11;7.70;;;5.25;;
42140;SDS011;27809;51.864;5.646;2023-06-22T04:23:38;7.78;;;4.63;;
42140;SDS011;27809;51.864;5.646;2023-06-22T04:26:03;7.90;;;4.80;;
42140;SDS011;27809;51.864;5.646;2023-06-22T04:28:29;6.60;;;4.70;;
42140;SDS011;27809;51.864;5.646;2023-06-22T04:30:59;10.10;;;5.60;;
42140;SDS011;27809;51.864;5.646;2023-06-22T04:33:27;8.07;;;4.80;;
42140;SDS011;27809;51.864;5.646;2023-06-22T04:35:54;9.93;;;5.93;;
42140;SDS011;27809;51.864;5.646;2023-06-22T04:38:21;12.70;;;6.75;;
42140;SDS011;27809;51.864;5.646;2023-06-22T04:40:48;6.18;;;4.55;;
42140;SDS011;27809;51.864;5.646;2023-06-22T04:43:13;14.13;;;6.22;;
42140;SDS011;27809;51.864;5.646;2023-06-22T04:45:39;9.38;;;6.60;;
42140;SDS011;27809;51.864;5.646;2023-06-22T04:48:05;13.10;;;7.13;;
42140;SDS011;27809;51.864;5.646;2023-06-22T04:50:31;12.60;;;6.57;;
42140;SDS011;27809;51.864;5.646;2023-06-22T04:52:56;14.60;;;6.95;;
42140;SDS011;27809;51.864;5.646;2023-06-22T04:55:23;10.38;;;7.03;;
42140;SDS011;27809;51.864;5.646;2023-06-22T04:57:50;12.50;;;7.85;;
42140;SDS011;27809;51.864;5.646;2023-06-22T05:00:16;11.95;;;8.40;;
42140;SDS011;27809;51.864;5.646;2023-06-22T05:02:44;15.02;;;8.57;;
42140;SDS011;27809;51.864;5.646;2023-06-22T05:05:11;15.00;;;8.80;;
42140;SDS011;27809;51.864;5.646;2023-06-22T05:07:38;17.13;;;10.35;;
42140;SDS011;27809;51.864;5.646;2023-06-22T05:10:08;15.80;;;9.25;;
42140;SDS011;27809;51.864;5.646;2023-06-22T05:12:35;17.52;;;10.75;;
42140;SDS011;27809;51.864;5.646;2023-06-22T05:15:01;20.13;;;12.45;;
42140;SDS011;27809;51.864;5.646;2023-06-22T05:17:26;21.73;;;9.82;;
42140;SDS011;27809;51.864;5.646;2023-06-22T05:19:52;20.23;;;9.90;;
42140;SDS011;27809;51.864;5.646;2023-06-22T05:22:18;15.52;;;10.50;;
42140;SDS011;27809;51.864;5.646;2023-06-22T05:24:43;14.27;;;10.68;;
42140;SDS011;27809;51.864;5.646;2023-06-22T05:27:09;16.35;;;10.55;;
42140;SDS011;27809;51.864;5.646;2023-06-22T05:29:36;18.20;;;11.52;;
42140;SDS011;27809;51.864;5.646;2023-06-22T05:32:02;17.23;;;11.32;;
42140;SDS011;27809;51.864;5.646;2023-06-22T05:34:28;14.57;;;10.32;;
42140;SDS011;27809;51.864;5.646;2023-06-22T05:36:53;20.27;;;12.30;;
42140;SDS011;27809;51.864;5.646;2023-06-22T05:39:19;16.65;;;9.73;;
42140;SDS011;27809;51.864;5.646;2023-06-22T05:41:45;15.52;;;11.07;;
42140;SDS011;27809;51.864;5.646;2023-06-22T05:44:11;25.77;;;12.00;;
42140;SDS011;27809;51.864;5.646;2023-06-22T05:46:36;18.27;;;12.02;;
42140;SDS011;27809;51.864;5.646;2023-06-22T05:49:05;19.00;;;12.70;;
42140;SDS011;27809;51.864;5.646;2023-06-22T05:51:30;18.70;;;11.10;;
42140;SDS011;27809;51.864;5.646;2023-06-22T05:53:56;19.85;;;12.55;;
42140;SDS011;27809;51.864;5.646;2023-06-22T05:56:21;18.30;;;11.30;;
42140;SDS011;27809;51.864;5.646;2023-06-22T05:58:47;18.02;;;11.65;;
42140;SDS011;27809;51.864;5.646;2023-06-22T06:01:13;18.20;;;10.80;;
42140;SDS011;27809;51.864;5.646;2023-06-22T06:03:40;20.30;;;11.90;;
42140;SDS011;27809;51.864;5.646;2023-06-22T06:06:06;17.33;;;13.55;;
42140;SDS011;27809;51.864;5.646;2023-06-22T06:08:32;19.33;;;11.15;;
42140;SDS011;27809;51.864;5.646;2023-06-22T06:10:58;20.40;;;11.88;;
42140;SDS011;27809;51.864;5.646;2023-06-22T06:13:23;20.55;;;11.13;;
42140;SDS011;27809;51.864;5.646;2023-06-22T06:15:49;20.33;;;12.25;;
42140;SDS011;27809;51.864;5.646;2023-06-22T06:18:16;19.58;;;11.98;;
42140;SDS011;27809;51.864;5.646;2023-06-22T06:20:42;16.85;;;11.23;;
42140;SDS011;27809;51.864;5.646;2023-06-22T06:23:07;18.63;;;11.38;;
42140;SDS011;27809;51.864;5.646;2023-06-22T06:25:33;16.40;;;12.38;;
42140;SDS011;27809;51.864;5.646;2023-06-22T06:27:59;18.00;;;12.20;;
42140;SDS011;27809;51.864;5.646;2023-06-22T06:30:24;19.70;;;13.05;;
42140;SDS011;27809;51.864;5.646;2023-06-22T06:32:50;19.92;;;12.48;;
42140;SDS011;27809;51.864;5.646;2023-06-22T06:35:15;18.08;;;12.40;;
42140;SDS011;27809;51.864;5.646;2023-06-22T06:37:42;22.67;;;12.35;;
42140;SDS011;27809;51.864;5.646;2023-06-22T06:40:09;16.05;;;11.60;;
42140;SDS011;27809;51.864;5.646;2023-06-22T06:42:37;19.77;;;12.25;;
42140;SDS011;27809;51.864;5.646;2023-06-22T06:45:05;17.52;;;10.88;;
42140;SDS011;27809;51.864;5.646;2023-06-22T06:47:31;16.95;;;11.27;;
42140;SDS011;27809;51.864;5.646;2023-06-22T06:49:57;17.45;;;9.68;;
42140;SDS011;27809;51.864;5.646;2023-06-22T06:52:23;19.58;;;12.40;;
42140;SDS011;27809;51.864;5.646;2023-06-22T06:54:48;16.13;;;10.45;;
42140;SDS011;27809;51.864;5.646;2023-06-22T06:57:14;16.50;;;11.02;;
42140;SDS011;27809;51.864;5.646;2023-06-22T06:59:40;14.88;;;10.73;;
42140;SDS011;27809;51.864;5.646;2023-06-22T07:02:06;17.00;;;10.27;;
42140;SDS011;27809;51.864;5.646;2023-06-22T07:04:32;16.33;;;10.52;;
42140;SDS011;27809;51.864;5.646;2023-06-22T07:06:58;14.80;;;9.23;;
42140;SDS011;27809;51.864;5.646;2023-06-22T07:09:26;18.80;;;9.65;;
42140;SDS011;27809;51.864;5.646;2023-06-22T07:11:51;14.38;;;9.90;;
42140;SDS011;27809;51.864;5.646;2023-06-22T07:14:17;18.33;;;8.23;;
42140;SDS011;27809;51.864;5.646;2023-06-22T07:16:42;13.18;;;8.90;;
42140;SDS011;27809;51.864;5.646;2023-06-22T07:19:11;18.85;;;10.68;;
42140;SDS011;27809;51.864;5.646;2023-06-22T07:21:36;11.75;;;8.73;;
42140;SDS011;27809;51.864;5.646;2023-06-22T07:24:02;12.27;;;9.00;;
42140;SDS011;27809;51.864;5.646;2023-06-22T07:26:28;11.45;;;7.82;;
42140;SDS011;27809;51.864;5.646;2023-06-22T07:28:53;13.98;;;9.27;;
42140;SDS011;27809;51.864;5.646;2023-06-22T07:31:19;12.55;;;9.48;;
42140;SDS011;27809;51.864;5.646;2023-06-22T07:33:44;11.07;;;8.45;;
42140;SDS011;27809;51.864;5.646;2023-06-22T07:36:10;12.57;;;8.38;;
42140;SDS011;27809;51.864;5.646;2023-06-22T07:38:35;11.40;;;8.13;;
42140;SDS011;27809;51.864;5.646;2023-06-22T07:41:01;12.50;;;8.38;;
42140;SDS011;27809;51.864;5.646;2023-06-22T07:43:30;13.27;;;9.07;;
42140;SDS011;27809;51.864;5.646;2023-06-22T07:45:58;11.52;;;6.97;;
42140;SDS011;27809;51.864;5.646;2023-06-22T07:48:23;12.00;;;7.40;;
42140;SDS011;27809;51.864;5.646;2023-06-22T07:50:49;12.90;;;8.15;;
42140;SDS011;27809;51.864;5.646;2023-06-22T07:53:14;12.13;;;8.35;;
42140;SDS011;27809;51.864;5.646;2023-06-22T07:55:40;8.20;;;6.72;;
42140;SDS011;27809;51.864;5.646;2023-06-22T07:58:06;8.43;;;6.88;;
42140;SDS011;27809;51.864;5.646;2023-06-22T08:00:33;10.32;;;7.00;;
42140;SDS011;27809;51.864;5.646;2023-06-22T08:02:59;11.80;;;7.82;;
42140;SDS011;27809;51.864;5.646;2023-06-22T08:05:24;12.90;;;5.68;;
42140;SDS011;27809;51.864;5.646;2023-06-22T08:07:50;8.15;;;6.13;;
42140;SDS011;27809;51.864;5.646;2023-06-22T08:10:16;9.20;;;5.78;;
42140;SDS011;27809;51.864;5.646;2023-06-22T08:12:42;6.63;;;5.45;;
42140;SDS011;27809;51.864;5.646;2023-06-22T08:15:07;11.77;;;6.13;;
42140;SDS011;27809;51.864;5.646;2023-06-22T08:17:34;13.90;;;7.07;;
42140;SDS011;27809;51.864;5.646;2023-06-22T08:20:01;11.43;;;5.60;;
42140;SDS011;27809;51.864;5.646;2023-06-22T08:22:30;10.82;;;6.38;;
42140;SDS011;27809;51.864;5.646;2023-06-22T08:24:58;11.93;;;5.85;;
42140;SDS011;27809;51.864;5.646;2023-06-22T08:27:23;7.85;;;5.28;;
42140;SDS011;27809;51.864;5.646;2023-06-22T08:29:49;7.68;;;5.10;;
42140;SDS011;27809;51.864;5.646;2023-06-22T08:32:15;6.60;;;5.28;;
42140;SDS011;27809;51.864;5.646;2023-06-22T08:34:41;7.25;;;4.93;;
42140;SDS011;27809;51.864;5.646;2023-06-22T08:37:08;7.45;;;4.05;;
42140;SDS011;27809;51.864;5.646;2023-06-22T08:39:34;6.00;;;4.45;;
42140;SDS011;27809;51.864;5.646;2023-06-22T08:41:59;13.77;;;4.85;;
42140;SDS011;27809;51.864;5.646;2023-06-22T08:44:25;5.30;;;4.38;;
42140;SDS011;27809;51.864;5.646;2023-06-22T08:46:51;6.55;;;4.22;;
42140;SDS011;27809;51.864;5.646;2023-06-22T08:49:16;12.48;;;4.35;;
42140;SDS011;27809;51.864;5.646;2023-06-22T08:51:42;6.93;;;5.25;;
42140;SDS011;27809;51.864;5.646;2023-06-22T08:54:09;7.30;;;4.53;;
42140;SDS011;27809;51.864;5.646;2023-06-22T08:56:35;7.13;;;4.65;;
42140;SDS011;27809;51.864;5.646;2023-06-22T08:59:00;8.02;;;4.75;;
42140;SDS011;27809;51.864;5.646;2023-06-22T09:01:26;9.00;;;4.68;;
42140;SDS011;27809;51.864;5.646;2023-06-22T09:03:52;6.75;;;4.47;;
42140;SDS011;27809;51.864;5.646;2023-06-22T09:06:22;9.55;;;4.63;;
42140;SDS011;27809;51.864;5.646;2023-06-22T09:08:48;7.60;;;4.50;;
42140;SDS011;27809;51.864;5.646;2023-06-22T09:11:14;5.82;;;4.18;;
42140;SDS011;27809;51.864;5.646;2023-06-22T09:13:39;10.57;;;4.70;;
42140;SDS011;27809;51.864;5.646;2023-06-22T09:16:05;9.13;;;4.88;;
42140;SDS011;27809;51.864;5.646;2023-06-22T09:18:31;5.78;;;3.85;;
42140;SDS011;27809;51.864;5.646;2023-06-22T09:20:57;5.10;;;3.58;;
42140;SDS011;27809;51.864;5.646;2023-06-22T09:23:22;6.32;;;3.97;;
42140;SDS011;27809;51.864;5.646;2023-06-22T09:25:48;5.57;;;2.55;;
42140;SDS011;27809;51.864;5.646;2023-06-22T09:28:14;5.03;;;2.85;;
42140;SDS011;27809;51.864;5.646;2023-06-22T09:30:40;6.15;;;2.10;;
42140;SDS011;27809;51.864;5.646;2023-06-22T09:33:07;5.20;;;2.58;;
42140;SDS011;27809;51.864;5.646;2023-06-22T09:35:33;5.88;;;2.20;;
42140;SDS011;27809;51.864;5.646;2023-06-22T09:37:59;5.82;;;2.70;;
42140;SDS011;27809;51.864;5.646;2023-06-22T09:40:24;3.38;;;2.38;;
42140;SDS011;27809;51.864;5.646;2023-06-22T09:42:50;5.70;;;2.70;;
42140;SDS011;27809;51.864;5.646;2023-06-22T09:45:15;6.30;;;3.08;;
42140;SDS011;27809;51.864;5.646;2023-06-22T09:47:41;9.43;;;2.90;;
42140;SDS011;27809;51.864;5.646;2023-06-22T09:50:07;5.15;;;2.83;;
42140;SDS011;27809;51.864;5.646;2023-06-22T09:52:33;6.15;;;4.22;;
42140;SDS011;27809;51.864;5.646;2023-06-22T09:54:59;4.85;;;3.22;;
42140;SDS011;27809;51.864;5.646;2023-06-22T09:57:24;4.05;;;3.05;;
42140;SDS011;27809;51.864;5.646;2023-06-22T09:59:50;4.93;;;3.47;;
42140;SDS011;27809;51.864;5.646;2023-06-22T10:02:15;4.80;;;3.55;;
42140;SDS011;27809;51.864;5.646;2023-06-22T10:04:42;6.20;;;3.10;;
42140;SDS011;27809;51.864;5.646;2023-06-22T10:07:07;9.35;;;4.35;;
42140;SDS011;27809;51.864;5.646;2023-06-22T10:09:33;7.85;;;2.80;;
42140;SDS011;27809;51.864;5.646;2023-06-22T10:11:58;5.63;;;3.35;;
42140;SDS011;27809;51.864;5.646;2023-06-22T10:14:24;4.72;;;2.65;;
42140;SDS011;27809;51.864;5.646;2023-06-22T10:16:51;7.55;;;3.67;;
42140;SDS011;27809;51.864;5.646;2023-06-22T10:19:17;3.72;;;2.85;;
42140;SDS011;27809;51.864;5.646;2023-06-22T10:21:42;4.50;;;3.35;;
42140;SDS011;27809;51.864;5.646;2023-06-22T10:24:08;9.88;;;4.10;;
42140;SDS011;27809;51.864;5.646;2023-06-22T10:26:34;7.72;;;2.92;;
42140;SDS011;27809;51.864;5.646;2023-06-22T10:29:00;4.57;;;2.92;;
42140;SDS011;27809;51.864;5.646;2023-06-22T10:31:27;6.53;;;3.10;;
42140;SDS011;27809;51.864;5.646;2023-06-22T10:33:53;6.53;;;2.83;;
42140;SDS011;27809;51.864;5.646;2023-06-22T10:36:18;5.90;;;3.55;;
42140;SDS011;27809;51.864;5.646;2023-06-22T10:38:44;7.07;;;3.90;;
42140;SDS011;27809;51.864;5.646;2023-06-22T10:41:10;8.85;;;3.72;;
42140;SDS011;27809;51.864;5.646;2023-06-22T10:43:36;6.80;;;3.65;;
42140;SDS011;27809;51.864;5.646;2023-06-22T10:46:01;10.38;;;3.90;;
42140;SDS011;27809;51.864;5.646;2023-06-22T10:48:27;4.95;;;3.17;;
42140;SDS011;27809;51.864;5.646;2023-06-22T10:50:52;4.35;;;3.35;;
42140;SDS011;27809;51.864;5.646;2023-06-22T10:53:19;9.02;;;3.72;;
42140;SDS011;27809;51.864;5.646;2023-06-22T10:55:45;9.45;;;4.32;;
42140;SDS011;27809;51.864;5.646;2023-06-22T10:58:10;5.43;;;3.30;;
42140;SDS011;27809;51.864;5.646;2023-06-22T11:00:36;5.45;;;3.45;;
42140;SDS011;27809;51.864;5.646;2023-06-22T11:03:01;4.28;;;3.40;;
42140;SDS011;27809;51.864;5.646;2023-06-22T11:05:27;5.40;;;3.13;;
42140;SDS011;27809;51.864;5.646;2023-06-22T11:07:53;3.70;;;3.33;;
42140;SDS011;27809;51.864;5.646;2023-06-22T11:10:18;6.30;;;2.92;;
42140;SDS011;27809;51.864;5.646;2023-06-22T11:12:43;4.18;;;2.63;;
42140;SDS011;27809;51.864;5.646;2023-06-22T11:15:09;3.05;;;1.85;;
42140;SDS011;27809;51.864;5.646;2023-06-22T11:17:35;5.93;;;3.55;;
42140;SDS011;27809;51.864;5.646;2023-06-22T11:20:01;5.07;;;3.13;;
42140;SDS011;27809;51.864;5.646;2023-06-22T11:22:30;7.53;;;4.18;;
42140;SDS011;27809;51.864;5.646;2023-06-22T11:24:58;4.13;;;3.72;;
42140;SDS011;27809;51.864;5.646;2023-06-22T11:27:24;8.60;;;3.10;;
42140;SDS011;27809;51.864;5.646;2023-06-22T11:29:49;6.47;;;3.60;;
42140;SDS011;27809;51.864;5.646;2023-06-22T11:32:15;11.93;;;4.80;;
42140;SDS011;27809;51.864;5.646;2023-06-22T11:34:40;2.75;;;1.77;;
42140;SDS011;27809;51.864;5.646;2023-06-22T11:37:06;3.47;;;2.47;;
42140;SDS011;27809;51.864;5.646;2023-06-22T11:39:31;4.78;;;1.25;;
42140;SDS011;27809;51.864;5.646;2023-06-22T11:41:57;3.55;;;1.90;;
42140;SDS011;27809;51.864;5.646;2023-06-22T11:44:22;4.82;;;1.77;;
42140;SDS011;27809;51.864;5.646;2023-06-22T11:46:48;9.43;;;4.07;;
42140;SDS011;27809;51.864;5.646;2023-06-22T11:49:13;10.57;;;4.43;;
42140;SDS011;27809;51.864;5.646;2023-06-22T11:51:39;8.70;;;5.07;;
42140;SDS011;27809;51.864;5.646;2023-06-22T11:54:04;6.55;;;4.07;;
42140;SDS011;27809;51.864;5.646;2023-06-22T11:56:30;8.35;;;5.18;;
42140;SDS011;27809;51.864;5.646;2023-06-22T11:58:55;9.90;;;6.03;;
42140;SDS011;27809;51.864;5.646;2023-06-22T12:01:21;11.65;;;6.10;;
42140;SDS011;27809;51.864;5.646;2023-06-22T12:03:46;9.20;;;5.90;;
42140;SDS011;27809;51.864;5.646;2023-06-22T12:06:13;10.07;;;6.80;;
42140;SDS011;27809;51.864;5.646;2023-06-22T12:08:38;33.53;;;8.32;;
42140;SDS011;27809;51.864;5.646;2023-06-22T12:11:04;14.00;;;7.63;;
42140;SDS011;27809;51.864;5.646;2023-06-22T12:13:29;11.50;;;7.15;;
42140;SDS011;27809;51.864;5.646;2023-06-22T12:15:55;11.50;;;8.07;;
42140;SDS011;27809;51.864;5.646;2023-06-22T12:18:20;15.63;;;7.60;;
42140;SDS011;27809;51.864;5.646;2023-06-22T12:20:46;11.63;;;9.00;;
42140;SDS011;27809;51.864;5.646;2023-06-22T12:23:12;11.98;;;8.23;;
42140;SDS011;27809;51.864;5.646;2023-06-22T12:25:38;11.55;;;8.23;;
42140;SDS011;27809;51.864;5.646;2023-06-22T12:28:04;13.07;;;7.63;;
42140;SDS011;27809;51.864;5.646;2023-06-22T12:30:29;11.00;;;7.75;;
42140;SDS011;27809;51.864;5.646;2023-06-22T12:32:55;12.50;;;8.07;;
42140;SDS011;27809;51.864;5.646;2023-06-22T12:35:21;11.18;;;8.63;;
42140;SDS011;27809;51.864;5.646;2023-06-22T12:37:46;14.82;;;8.23;;
42140;SDS011;27809;51.864;5.646;2023-06-22T12:40:12;15.13;;;10.43;;
42140;SDS011;27809;51.864;5.646;2023-06-22T12:42:37;13.43;;;10.32;;
42140;SDS011;27809;51.864;5.646;2023-06-22T12:45:03;12.73;;;9.75;;
42140;SDS011;27809;51.864;5.646;2023-06-22T12:47:30;13.82;;;10.07;;
42140;SDS011;27809;51.864;5.646;2023-06-22T12:49:56;15.10;;;9.75;;
42140;SDS011;27809;51.864;5.646;2023-06-22T12:52:21;14.05;;;9.77;;
42140;SDS011;27809;51.864;5.646;2023-06-22T12:54:47;15.18;;;10.15;;
42140;SDS011;27809;51.864;5.646;2023-06-22T12:57:13;16.98;;;10.18;;
42140;SDS011;27809;51.864;5.646;2023-06-22T12:59:39;15.95;;;10.80;;
42140;SDS011;27809;51.864;5.646;2023-06-22T13:02:05;16.85;;;10.90;;
42140;SDS011;27809;51.864;5.646;2023-06-22T13:04:30;15.90;;;10.55;;
42140;SDS011;27809;51.864;5.646;2023-06-22T13:06:56;12.88;;;10.05;;
42140;SDS011;27809;51.864;5.646;2023-06-22T13:09:21;16.40;;;9.75;;
42140;SDS011;27809;51.864;5.646;2023-06-22T13:11:47;13.35;;;9.68;;
42140;SDS011;27809;51.864;5.646;2023-06-22T13:14:12;22.25;;;11.25;;
42140;SDS011;27809;51.864;5.646;2023-06-22T13:16:38;14.55;;;10.98;;
42140;SDS011;27809;51.864;5.646;2023-06-22T13:19:03;16.92;;;10.07;;
42140;SDS011;27809;51.864;5.646;2023-06-22T13:21:30;16.70;;;11.73;;
42140;SDS011;27809;51.864;5.646;2023-06-22T13:23:55;21.30;;;10.15;;
42140;SDS011;27809;51.864;5.646;2023-06-22T13:26:21;15.35;;;9.90;;
42140;SDS011;27809;51.864;5.646;2023-06-22T13:28:47;21.25;;;10.55;;
42140;SDS011;27809;51.864;5.646;2023-06-22T13:31:12;15.57;;;10.73;;
42140;SDS011;27809;51.864;5.646;2023-06-22T13:33:38;16.35;;;11.95;;
42140;SDS011;27809;51.864;5.646;2023-06-22T13:36:05;16.58;;;10.90;;
42140;SDS011;27809;51.864;5.646;2023-06-22T13:38:31;17.15;;;13.77;;
42140;SDS011;27809;51.864;5.646;2023-06-22T13:40:57;19.23;;;13.82;;
42140;SDS011;27809;51.864;5.646;2023-06-22T13:43:24;20.50;;;12.65;;
42140;SDS011;27809;51.864;5.646;2023-06-22T13:45:51;19.08;;;14.15;;
42140;SDS011;27809;51.864;5.646;2023-06-22T13:48:17;19.33;;;13.82;;
42140;SDS011;27809;51.864;5.646;2023-06-22T13:50:43;19.15;;;14.50;;
42140;SDS011;27809;51.864;5.646;2023-06-22T13:53:08;22.73;;;14.52;;
42140;SDS011;27809;51.864;5.646;2023-06-22T13:55:34;19.75;;;13.38;;
42140;SDS011;27809;51.864;5.646;2023-06-22T13:57:59;25.23;;;14.85;;
42140;SDS011;27809;51.864;5.646;2023-06-22T14:00:25;21.73;;;14.85;;
42140;SDS011;27809;51.864;5.646;2023-06-22T14:02:52;19.30;;;14.07;;
42140;SDS011;27809;51.864;5.646;2023-06-22T14:05:18;32.80;;;16.92;;
42140;SDS011;27809;51.864;5.646;2023-06-22T14:07:44;26.40;;;15.52;;
42140;SDS011;27809;51.864;5.646;2023-06-22T14:10:10;24.17;;;15.57;;
42140;SDS011;27809;51.864;5.646;2023-06-22T14:12:35;22.27;;;14.95;;
42140;SDS011;27809;51.864;5.646;2023-06-22T14:15:01;24.05;;;17.00;;
42140;SDS011;27809;51.864;5.646;2023-06-22T14:17:26;24.48;;;15.90;;
42140;SDS011;27809;51.864;5.646;2023-06-22T14:19:52;25.38;;;17.05;;
42140;SDS011;27809;51.864;5.646;2023-06-22T14:22:18;27.55;;;16.60;;
42140;SDS011;27809;51.864;5.646;2023-06-22T14:24:45;29.23;;;18.58;;
42140;SDS011;27809;51.864;5.646;2023-06-22T14:27:10;29.10;;;16.95;;
42140;SDS011;27809;51.864;5.646;2023-06-22T14:29:36;26.38;;;17.15;;
42140;SDS011;27809;51.864;5.646;2023-06-22T14:32:01;33.13;;;18.95;;
42140;SDS011;27809;51.864;5.646;2023-06-22T14:34:27;29.35;;;17.65;;
42140;SDS011;27809;51.864;5.646;2023-06-22T14:36:53;24.38;;;17.80;;
42140;SDS011;27809;51.864;5.646;2023-06-22T14:39:18;24.90;;;17.33;;
42140;SDS011;27809;51.864;5.646;2023-06-22T14:41:45;29.27;;;19.02;;
42140;SDS011;27809;51.864;5.646;2023-06-22T14:44:11;28.35;;;16.52;;